Time;durP1;ratioP1;P1;durP2;ratioP2;P2;SDS_P1;SDS_P2;PMS_P1;PMS_P2;Temp;Humidity;BMP_temperature;BMP_pressure;BME280_temperature;BME280_humidity;BME280_pressure;Samples;Min_cycle;Max_cycle;Signal;HPM_P1;HPM_P2
2024/01/26 00:01:53;;;;;;;6.80;3.67;;;3.70;99.90;;;3.63;100.00;101928.38;4881831;29;20184;-78
2024/01/26 00:04:24;;;;;;;1.10;1.00;;;3.70;99.90;;;3.43;100.00;101931.94;4880857;29;20200;-78
2024/01/26 00:06:56;;;;;;;1.27;1.00;;;3.70;99.90;;;3.24;100.00;101927.31;4882164;29;20219;-79
2024/01/26 00:12:59;;;;;;;6.63;3.75;;;3.60;99.90;;;3.08;100.00;101942.09;4881845;29;20214;-79
2024/01/26 00:16:03;;;;;;;8.55;2.15;;;3.50;99.90;;;2.98;100.00;101940.19;4878683;29;20209;-78
2024/01/26 00:26:24;;;;;;;2.10;1.20;;;3.50;99.90;;;3.34;100.00;101944.25;4883195;29;20191;-78
2024/01/26 00:33:01;;;;;;;4.35;3.35;;;3.60;99.90;;;3.23;100.00;101938.13;4869522;29;20282;-78
2024/01/26 00:35:29;;;;;;;1.73;1.60;;;3.50;99.90;;;3.20;100.00;101933.00;4882384;29;20256;-79
2024/01/26 00:38:00;;;;;;;10.02;1.42;;;3.50;99.90;;;3.03;100.00;101929.94;4884145;29;20207;-78
2024/01/26 00:40:29;;;;;;;11.38;1.25;;;3.40;99.90;;;2.97;100.00;101927.78;4878398;29;20204;-78
2024/01/26 00:42:58;;;;;;;1.10;0.70;;;3.40;99.90;;;3.14;100.00;101930.88;4877899;29;20297;-78
2024/01/26 00:45:27;;;;;;;13.73;2.13;;;3.40;99.90;;;3.10;100.00;101918.75;4877379;29;20206;-79
2024/01/26 00:47:59;;;;;;;4.25;2.38;;;3.40;99.90;;;3.11;100.00;101923.94;4877079;29;20222;-78
2024/01/26 00:50:28;;;;;;;2.38;1.23;;;3.40;99.90;;;3.26;100.00;101913.78;4887450;29;20199;-79
2024/01/26 00:52:58;;;;;;;2.72;2.53;;;3.50;99.90;;;3.31;100.00;101911.56;4878145;29;20290;-79
2024/01/26 00:55:29;;;;;;;2.53;0.93;;;3.50;99.90;;;3.29;100.00;101917.03;4891102;29;20199;-78
2024/01/26 00:57:59;;;;;;;12.38;2.25;;;3.50;99.90;;;3.21;100.00;101932.03;4878978;29;20207;-79
2024/01/26 01:00:29;;;;;;;1.75;0.90;;;3.40;99.90;;;3.01;100.00;101929.22;4878192;29;20203;-78
2024/01/26 01:02:58;;;;;;;1.20;1.00;;;3.40;99.90;;;3.17;100.00;101930.59;4877942;29;20187;-78
2024/01/26 01:05:28;;;;;;;13.35;2.63;;;3.40;99.90;;;3.22;100.00;101923.03;4877656;29;20180;-78
2024/01/26 01:07:59;;;;;;;3.25;1.55;;;3.40;99.90;;;3.21;100.00;101913.31;4877368;29;20216;-78
2024/01/26 01:10:28;;;;;;;2.13;0.75;;;3.40;99.90;;;3.08;100.00;101910.84;4878855;29;20199;-80
2024/01/26 01:12:58;;;;;;;1.33;1.23;;;3.40;99.90;;;3.01;100.00;101912.31;4880775;29;20192;-79
2024/01/26 01:15:29;;;;;;;2.17;1.77;;;3.30;99.90;;;2.82;100.00;101913.00;4880825;29;20200;-78
2024/01/26 01:17:58;;;;;;;2.65;2.45;;;3.20;99.90;;;2.74;100.00;101912.81;4877042;29;20220;-78
2024/01/26 01:20:27;;;;;;;0.80;0.60;;;3.10;99.90;;;2.74;100.00;101912.81;4876707;29;20404;-79
2024/01/26 01:22:58;;;;;;;6.03;3.50;;;3.10;99.90;;;2.83;100.00;101917.38;4875207;29;20203;-79
2024/01/26 01:25:29;;;;;;;3.55;1.67;;;3.10;99.90;;;2.80;100.00;101917.66;4869620;29;20195;-80
2024/01/26 01:27:58;;;;;;;1.08;0.60;;;3.10;99.90;;;2.67;100.00;101916.94;4873082;29;20219;-79
2024/01/26 01:30:27;;;;;;;1.15;1.05;;;3.10;99.90;;;2.52;100.00;101907.50;4871406;29;20380;-80
2024/01/26 01:32:56;;;;;;;1.70;1.38;;;2.90;99.90;;;2.65;100.00;101899.34;4884138;29;20232;-78
2024/01/26 01:35:25;;;;;;;4.70;1.10;;;2.90;99.90;;;2.57;100.00;101910.66;4876830;29;20195;-79
2024/01/26 01:37:54;;;;;;;2.15;1.50;;;2.90;99.90;;;2.62;100.00;101901.28;4878104;29;20200;-78
2024/01/26 01:40:23;;;;;;;7.70;2.05;;;3.00;99.90;;;2.87;100.00;101902.78;4878650;29;20220;-79
2024/01/26 01:42:53;;;;;;;1.90;1.45;;;3.10;99.90;;;2.66;100.00;101909.94;4890050;29;20190;-79
2024/01/26 01:45:23;;;;;;;6.28;1.98;;;3.00;99.90;;;2.61;100.00;101907.59;4882687;29;20220;-80
2024/01/26 01:47:52;;;;;;;3.30;1.92;;;3.00;99.90;;;2.56;100.00;101898.31;4883102;29;20214;-78
2024/01/26 01:50:21;;;;;;;0.80;0.60;;;2.90;99.90;;;2.68;100.00;101891.94;4884618;29;20182;-78
2024/01/26 01:52:53;;;;;;;1.65;1.55;;;3.00;99.90;;;2.57;100.00;101894.63;4883735;29;20202;-78
2024/01/26 01:55:22;;;;;;;1.20;1.10;;;2.90;99.90;;;2.45;100.00;101895.66;4884735;29;20195;-79
2024/01/26 01:57:56;;;;;;;1.77;1.00;;;2.90;99.90;;;2.50;100.00;101888.09;4883785;29;20275;-79
2024/01/26 02:00:25;;;;;;;1.63;1.50;;;2.80;99.90;;;2.55;100.00;101885.91;4881933;29;20224;-79
2024/01/26 02:02:54;;;;;;;0.90;0.70;;;2.90;99.90;;;2.50;100.00;101882.75;4863125;29;20164;-79
2024/01/26 02:05:23;;;;;;;6.25;2.47;;;2.90;99.90;;;2.56;100.00;101884.94;4871323;29;20230;-79
2024/01/26 02:07:53;;;;;;;1.83;1.73;;;2.90;99.90;;;2.47;100.00;101872.34;4886457;29;20664;-79
2024/01/26 02:10:21;;;;;;;1.88;1.67;;;2.80;99.90;;;2.46;100.00;101870.63;4899319;29;20246;-79
2024/01/26 02:12:50;;;;;;;1.25;1.02;;;2.90;99.90;;;2.40;100.00;101881.81;4885875;29;20259;-78
2024/01/26 02:15:20;;;;;;;19.67;2.83;;;2.80;99.90;;;2.39;100.00;101874.78;4883617;29;20194;-80
2024/01/26 02:17:49;;;;;;;1.80;1.60;;;2.80;99.90;;;2.47;100.00;101869.66;4882952;29;20225;-79
2024/01/26 02:20:18;;;;;;;1.25;1.15;;;2.80;99.90;;;2.39;100.00;101864.94;4882762;29;20194;-79
2024/01/26 02:22:47;;;;;;;3.75;2.58;;;2.80;99.90;;;2.59;100.00;101864.16;4882373;29;20183;-79
2024/01/26 02:25:18;;;;;;;7.18;1.60;;;2.90;99.90;;;2.64;100.00;101863.75;4882672;29;20196;-80
2024/01/26 02:27:47;;;;;;;3.55;1.35;;;3.00;99.90;;;2.59;100.00;101872.16;4881205;29;20243;-79
2024/01/26 02:30:16;;;;;;;1.75;1.02;;;2.90;99.90;;;2.71;100.00;101866.78;4881462;29;20208;-79
2024/01/26 02:32:45;;;;;;;7.00;2.17;;;3.00;99.90;;;2.76;100.00;101862.72;4869595;29;20199;-80
2024/01/26 02:35:14;;;;;;;8.88;3.55;;;3.00;99.90;;;2.72;100.00;101857.75;4867628;29;20196;-79
2024/01/26 02:37:43;;;;;;;3.40;1.13;;;3.00;99.90;;;2.76;100.00;101846.69;4851768;29;20212;-79
2024/01/26 02:40:13;;;;;;;4.40;2.45;;;3.00;99.90;;;2.72;100.00;101857.75;4859782;29;20216;-81
2024/01/26 02:42:43;;;;;;;2.55;1.60;;;3.00;99.90;;;2.71;100.00;101848.91;4869530;29;20270;-80
2024/01/26 02:45:13;;;;;;;3.30;2.60;;;3.00;99.90;;;2.78;100.00;101844.75;4870884;29;20187;-79
2024/01/26 02:47:42;;;;;;;0.90;0.70;;;3.00;99.90;;;2.79;100.00;101842.94;4875940;29;20219;-78
2024/01/26 02:50:14;;;;;;;2.35;1.33;;;3.10;99.90;;;2.81;100.00;101844.47;4877658;29;20243;-79
2024/01/26 02:52:43;;;;;;;6.00;4.00;;;3.10;99.90;;;2.82;100.00;101839.97;4877726;29;20227;-80
2024/01/26 02:55:12;;;;;;;2.95;2.10;;;3.00;99.90;;;2.81;100.00;101844.47;4868738;29;20207;-79
2024/01/26 02:57:43;;;;;;;2.03;1.25;;;3.00;99.90;;;2.74;100.00;101834.44;4867198;29;20278;-79
2024/01/26 03:00:17;;;;;;;2.65;2.35;;;3.10;99.90;;;2.65;100.00;101844.09;4868693;29;20246;-80
2024/01/26 03:02:46;;;;;;;3.55;2.63;;;3.00;99.90;;;2.64;100.00;101837.03;4865843;29;20702;-80
2024/01/26 03:05:15;;;;;;;8.43;4.13;;;3.00;99.90;;;2.61;100.00;101842.66;4868295;29;20191;-80
2024/01/26 03:07:45;;;;;;;4.43;2.08;;;3.00;99.90;;;2.49;100.00;101844.50;4868667;29;20215;-81
2024/01/26 03:10:14;;;;;;;2.13;1.67;;;2.90;99.90;;;2.66;100.00;101845.78;4869288;29;20275;-80
2024/01/26 03:12:44;;;;;;;1.38;0.85;;;2.90;99.90;;;2.82;100.00;101835.47;4870492;29;20190;-80
2024/01/26 03:15:13;;;;;;;5.32;2.50;;;3.00;99.90;;;2.86;100.00;101836.91;4866838;29;20207;-80
2024/01/26 03:17:42;;;;;;;2.97;1.67;;;3.00;99.90;;;2.87;100.00;101830.59;4867897;29;20225;-80
2024/01/26 03:20:12;;;;;;;1.55;1.40;;;3.10;99.90;;;2.71;100.00;101829.38;4866888;29;20176;-81
2024/01/26 03:22:43;;;;;;;3.58;1.98;;;3.00;99.90;;;2.63;100.00;101825.50;4881575;29;20204;-78
2024/01/26 03:25:12;;;;;;;13.45;2.40;;;3.00;99.90;;;2.56;100.00;101824.31;4871421;29;20196;-78
2024/01/26 03:27:40;;;;;;;15.50;4.10;;;2.90;99.90;;;2.55;100.00;101821.78;4873869;29;20278;-78
2024/01/26 03:30:12;;;;;;;2.88;2.30;;;2.90;99.90;;;2.67;100.00;101804.69;4861272;29;20219;-78
2024/01/26 03:32:41;;;;;;;7.72;3.60;;;2.90;99.90;;;2.71;100.00;101808.81;4866071;29;20203;-80
2024/01/26 03:35:11;;;;;;;1.33;1.00;;;2.90;99.90;;;2.70;100.00;101804.47;4878277;29;20868;-80
2024/01/26 03:37:41;;;;;;;3.33;1.83;;;3.00;99.90;;;2.76;100.00;101803.91;4883677;29;20720;-80
2024/01/26 03:40:11;;;;;;;7.57;1.65;;;3.00;99.90;;;2.84;100.00;101801.47;4885224;29;20183;-80
2024/01/26 03:42:40;;;;;;;2.65;1.77;;;3.00;99.90;;;2.91;100.00;101799.94;4885434;29;20242;-80
2024/01/26 03:45:12;;;;;;;1.63;1.20;;;3.10;99.90;;;3.09;100.00;101786.84;4865812;29;20187;-79
2024/01/26 03:47:41;;;;;;;2.40;1.60;;;3.20;99.90;;;3.04;100.00;101786.41;4864278;29;20238;-79
2024/01/26 03:50:11;;;;;;;4.32;2.45;;;3.20;99.90;;;3.32;100.00;101784.84;4862614;29;20211;-80
2024/01/26 03:52:40;;;;;;;2.38;2.17;;;3.40;99.90;;;3.40;100.00;101777.84;4863080;29;20210;-79
2024/01/26 03:55:10;;;;;;;3.20;2.05;;;3.40;99.90;;;3.50;100.00;101777.88;4863888;29;20203;-80
2024/01/26 03:57:39;;;;;;;4.07;3.10;;;3.50;99.90;;;3.48;100.00;101774.50;4862127;29;20223;-79
2024/01/26 04:00:13;;;;;;;1.25;1.15;;;3.50;99.90;;;3.50;100.00;101762.66;4862576;29;20226;-80
2024/01/26 04:02:43;;;;;;;2.42;1.70;;;3.60;99.90;;;3.56;100.00;101772.00;4881032;29;20207;-80
2024/01/26 04:05:13;;;;;;;2.30;1.20;;;3.60;99.90;;;3.61;100.00;101769.75;4867919;29;20257;-80
2024/01/26 04:07:42;;;;;;;1.73;1.27;;;3.60;99.90;;;3.64;100.00;101771.28;4867253;29;20721;-79
2024/01/26 04:10:11;;;;;;;9.02;1.90;;;3.70;99.90;;;3.64;100.00;101769.47;4866383;29;20203;-80
2024/01/26 04:12:40;;;;;;;3.50;2.10;;;3.70;99.90;;;3.56;100.00;101766.63;4865765;29;20199;-80
2024/01/26 04:15:11;;;;;;;2.55;1.90;;;3.60;99.90;;;3.67;100.00;101758.50;4866484;29;20202;-80
2024/01/26 04:17:41;;;;;;;4.75;2.35;;;3.70;99.90;;;3.73;100.00;101762.44;4864931;29;20223;-79
2024/01/26 04:20:11;;;;;;;3.15;2.55;;;3.80;99.90;;;3.75;100.00;101755.13;4867822;29;20211;-79
2024/01/26 04:22:40;;;;;;;2.33;2.13;;;3.80;99.90;;;3.74;100.00;101738.22;4867281;29;20200;-80
2024/01/26 04:25:13;;;;;;;4.40;3.38;;;3.80;99.90;;;3.71;100.00;101738.50;4866339;29;20196;-79
2024/01/26 04:27:42;;;;;;;26.98;3.03;;;3.80;99.90;;;3.79;100.00;101744.00;4880156;29;20319;-79
2024/01/26 04:30:14;;;;;;;1.30;1.20;;;3.80;99.90;;;3.86;100.00;101742.50;4866310;29;20242;-79
2024/01/26 04:32:44;;;;;;;4.68;2.40;;;3.90;99.90;;;3.77;100.00;101748.69;4881230;29;20234;-80
2024/01/26 04:35:14;;;;;;;2.28;2.08;;;3.90;99.90;;;3.85;100.00;101739.94;4877750;29;20241;-80
2024/01/26 04:37:43;;;;;;;2.95;2.42;;;3.90;99.90;;;3.92;100.00;101744.59;4865935;29;20241;-80
2024/01/26 04:40:13;;;;;;;2.03;1.90;;;3.90;99.90;;;4.03;100.00;101750.81;4873178;29;20226;-80
2024/01/26 04:42:42;;;;;;;4.82;3.13;;;4.00;99.90;;;3.98;100.00;101748.56;4851357;29;20255;-80
2024/01/26 04:45:13;;;;;;;2.15;1.95;;;4.00;99.90;;;3.84;100.00;101747.13;4865668;29;20184;-79
2024/01/26 04:47:43;;;;;;;1.88;1.77;;;3.90;99.90;;;3.85;100.00;101756.84;4865062;29;20226;-81
2024/01/26 04:50:12;;;;;;;4.03;2.47;;;3.90;99.90;;;3.82;100.00;101757.16;4864847;29;20265;-80
2024/01/26 04:52:41;;;;;;;4.10;3.70;;;3.90;99.90;;;3.72;100.00;101758.94;4865691;29;20182;-81
2024/01/26 04:55:12;;;;;;;1.98;1.25;;;3.90;99.90;;;3.83;100.00;101742.75;4865825;29;20230;-80
2024/01/26 04:57:41;;;;;;;2.60;2.40;;;3.90;99.90;;;3.77;100.00;101742.47;4879591;29;20231;-80
2024/01/26 05:00:13;;;;;;;8.20;3.58;;;3.90;99.90;;;3.83;100.00;101737.41;4864631;29;20187;-80
2024/01/26 05:02:42;;;;;;;3.17;1.73;;;3.90;99.90;;;3.77;100.00;101726.41;4865577;29;20190;-79
2024/01/26 05:05:13;;;;;;;3.97;2.10;;;3.80;99.90;;;3.70;100.00;101720.75;4864083;29;20203;-80
2024/01/26 05:07:42;;;;;;;5.15;1.73;;;3.80;99.90;;;3.84;100.00;101723.03;4867274;29;20227;-80
2024/01/26 05:10:11;;;;;;;18.58;3.38;;;3.90;99.90;;;3.77;100.00;101721.91;4865271;29;20354;-79
2024/01/26 05:12:40;;;;;;;22.85;1.88;;;3.90;99.90;;;4.01;100.00;101720.66;4865607;29;20184;-80
2024/01/26 05:15:12;;;;;;;3.85;3.53;;;4.00;99.90;;;4.00;100.00;101717.13;4865199;29;20678;-80
2024/01/26 05:17:41;;;;;;;1.38;1.23;;;4.00;53.20;;;4.14;100.00;101707.84;4864065;29;20659;-79
2024/01/26 05:20:11;;;;;;;2.88;1.45;;;4.10;53.80;;;4.07;100.00;101701.31;4865695;29;20195;-80
2024/01/26 05:22:41;;;;;;;6.30;1.85;;;4.10;10.00;;;4.11;100.00;101700.09;4879618;29;20192;-80
2024/01/26 05:25:11;;;;;;;3.70;2.95;;;4.10;1.00;;;4.03;100.00;101689.22;4865502;29;20192;-79
2024/01/26 05:27:41;;;;;;;6.47;1.92;;;4.00;1.00;;;4.04;100.00;101701.63;4864652;29;20701;-79
2024/01/26 05:30:12;;;;;;;5.43;3.40;;;4.10;1.00;;;4.11;100.00;101698.25;4863491;29;20777;-79
2024/01/26 05:32:44;;;;;;;5.97;3.53;;;4.10;1.00;;;4.11;100.00;101697.41;4865145;29;20244;-80
2024/01/26 05:35:14;;;;;;;4.30;1.73;;;4.10;1.00;;;4.15;100.00;101693.47;4864838;29;20211;-78
2024/01/26 05:37:46;;;;;;;19.65;1.83;;;4.10;1.00;;;4.12;100.00;101693.72;4864877;29;20221;-79
2024/01/26 05:40:15;;;;;;;1.42;1.33;;;4.10;1.00;;;4.09;100.00;101683.31;4873848;29;20222;-80
2024/01/26 05:42:45;;;;;;;3.90;1.85;;;4.10;1.00;;;4.07;100.00;101683.44;4865301;29;20195;-80
2024/01/26 05:45:16;;;;;;;1.40;1.30;;;4.10;1.00;;;4.13;100.00;101685.56;4865378;29;20192;-79
2024/01/26 05:47:47;;;;;;;1.20;1.08;;;4.10;1.00;;;4.05;100.00;101673.84;4865298;29;20227;-81
2024/01/26 05:50:17;;;;;;;3.38;2.67;;;4.10;1.00;;;3.87;100.00;101669.19;4866382;29;20203;-80
2024/01/26 05:52:50;;;;;;;3.80;2.60;;;4.00;1.00;;;3.99;100.00;101669.06;4865460;29;20187;-81
2024/01/26 05:55:19;;;;;;;4.35;4.05;;;4.00;1.00;;;4.02;100.00;101663.44;4866675;29;20218;-80
2024/01/26 05:57:48;;;;;;;1.60;1.50;;;4.00;1.00;;;4.01;100.00;101664.41;4865412;29;20235;-80
2024/01/26 06:00:19;;;;;;;3.92;2.38;;;4.00;1.00;;;4.10;100.00;101668.94;4867085;29;20258;-80
2024/01/26 06:02:49;;;;;;;1.92;1.30;;;4.00;1.00;;;4.05;100.00;101665.81;4866144;29;20176;-80
2024/01/26 06:05:18;;;;;;;4.90;2.95;;;4.00;1.00;;;4.03;100.00;101657.91;4866537;29;20226;-80
2024/01/26 06:07:48;;;;;;;3.33;3.10;;;4.00;1.00;;;3.98;100.00;101645.94;4867440;29;20219;-80
2024/01/26 06:10:17;;;;;;;2.97;2.78;;;4.00;1.00;;;4.31;100.00;101645.47;4866812;29;20218;-80
2024/01/26 06:12:46;;;;;;;2.67;1.75;;;4.20;1.00;;;4.29;100.00;101652.84;4868629;29;20289;-80
2024/01/26 06:15:15;;;;;;;4.65;1.75;;;4.20;1.00;;;4.44;100.00;101647.88;4870083;29;20187;-79
2024/01/26 06:17:48;;;;;;;2.35;1.42;;;4.30;1.00;;;4.32;100.00;101639.13;4869314;29;20252;-79
2024/01/26 06:20:18;;;;;;;4.85;3.53;;;4.30;1.00;;;4.33;100.00;101643.50;4877869;29;20211;-80
2024/01/26 06:22:47;;;;;;;1.42;1.23;;;4.30;1.00;;;4.50;100.00;101644.63;4872382;29;20196;-79
2024/01/26 06:25:16;;;;;;;2.17;1.98;;;4.40;1.00;;;4.32;100.00;101626.59;4879162;29;20195;-79
2024/01/26 06:27:45;;;;;;;3.15;1.77;;;4.40;1.00;;;4.19;100.00;101612.66;4894832;29;20226;-80
2024/01/26 06:30:15;;;;;;;1.20;0.90;;;4.30;99.90;;;4.07;100.00;101604.91;4875296;29;20264;-81
2024/01/26 06:32:46;;;;;;;3.63;2.00;;;4.20;1.00;;;3.99;100.00;101599.44;4869162;29;20203;-80
2024/01/26 06:35:16;;;;;;;2.20;1.75;;;4.10;99.90;;;3.85;100.00;101585.50;4870997;29;20195;-81
2024/01/26 06:37:46;;;;;;;2.38;1.50;;;4.00;1.00;;;3.82;100.00;101590.28;4871234;29;20215;-81
2024/01/26 06:40:18;;;;;;;5.03;2.47;;;4.00;1.00;;;3.77;100.00;101596.06;4874387;29;20199;-80
2024/01/26 06:42:47;;;;;;;2.30;1.67;;;4.00;1.00;;;3.70;100.00;101597.59;4892407;29;20214;-80
2024/01/26 06:45:16;;;;;;;3.28;2.38;;;3.90;1.00;;;3.59;100.00;101587.03;4880975;29;20199;-80
2024/01/26 06:47:49;;;;;;;3.15;2.65;;;3.80;1.00;;;3.46;100.00;101583.78;4868635;29;20215;-80
2024/01/26 06:50:19;;;;;;;1.55;1.45;;;3.70;1.00;;;3.60;100.00;101588.72;4867601;29;20210;-79
2024/01/26 06:52:48;;;;;;;8.15;4.70;;;3.70;1.00;;;3.57;100.00;101591.69;4867765;29;20268;-81
2024/01/26 06:55:17;;;;;;;4.82;3.28;;;3.70;1.00;;;3.54;100.00;101597.31;4868018;29;20208;-80
2024/01/26 06:57:46;;;;;;;1.90;1.67;;;3.70;1.00;;;3.54;100.00;101597.31;4851234;29;20726;-79
2024/01/26 07:00:17;;;;;;;1.48;1.15;;;3.70;1.00;;;3.44;100.00;101593.78;4866923;29;20260;-80
2024/01/26 07:02:48;;;;;;;4.30;2.35;;;3.70;1.00;;;3.43;100.00;101594.78;4868655;29;20306;-79
2024/01/26 07:05:17;;;;;;;3.17;1.90;;;3.60;1.00;;;3.31;100.00;101590.53;4869493;29;20200;-78
2024/01/26 07:07:47;;;;;;;2.13;1.83;;;3.50;1.00;;;3.31;100.00;101594.06;4874830;29;20227;-79
2024/01/26 07:10:16;;;;;;;2.60;2.00;;;3.50;1.00;;;3.24;100.00;101589.41;4875459;29;20203;-79
2024/01/26 07:12:46;;;;;;;2.35;2.17;;;3.40;1.00;;;3.14;100.00;101588.53;4870375;29;20226;-79
2024/01/26 07:15:15;;;;;;;2.28;1.92;;;3.30;1.00;;;3.23;100.00;101571.66;4871451;29;20190;-80
2024/01/26 07:17:49;;;;;;;5.65;3.13;;;3.40;1.00;;;3.26;100.00;101569.53;4878470;29;20254;-84
2024/01/26 07:20:23;;;;;;;3.10;1.55;;;3.40;1.00;;;3.21;100.00;101573.59;4875607;29;20243;-83
2024/01/26 07:22:52;;;;;;;1.63;1.52;;;3.40;1.00;;;3.32;100.00;101578.84;4876757;29;20198;-82
2024/01/26 07:25:21;;;;;;;1.45;1.15;;;3.40;1.00;;;3.31;100.00;101574.47;4878132;29;20215;-80
2024/01/26 07:27:50;;;;;;;2.10;1.77;;;3.40;1.00;;;3.51;100.00;101581.53;4872692;29;20256;-80
2024/01/26 07:30:30;;;;;;;5.05;1.50;;;3.50;1.00;;;3.49;100.00;101576.31;4874749;29;20216;-80
2024/01/26 07:33:03;;;;;;;1.23;1.13;;;3.50;1.00;;;3.61;100.00;101576.19;4870180;29;20488;-80
2024/01/26 07:35:32;;;;;;;2.35;2.25;;;3.60;1.00;;;3.67;100.00;101564.94;4869825;29;20183;-80
2024/01/26 07:38:01;;;;;;;12.75;3.65;;;3.70;1.00;;;3.66;100.00;101558.72;4870216;29;20262;-79
2024/01/26 07:40:31;;;;;;;4.07;2.63;;;3.70;1.00;;;3.88;100.00;101550.38;4870451;29;20262;-81
2024/01/26 07:43:00;;;;;;;4.40;2.17;;;3.80;1.00;;;3.88;100.00;101541.50;4876021;29;20198;-80
2024/01/26 07:45:29;;;;;;;2.97;1.98;;;3.90;1.00;;;4.03;100.00;101549.94;4872288;29;20199;-82
2024/01/26 07:47:58;;;;;;;6.47;2.58;;;3.90;1.00;;;4.14;100.00;101539.06;4868524;29;20252;-82
2024/01/26 07:50:28;;;;;;;1.73;1.63;;;4.10;1.00;;;4.00;100.00;101550.25;4870532;29;20203;-82
2024/01/26 07:52:57;;;;;;;3.58;2.35;;;4.10;1.00;;;4.19;100.00;101547.50;4875020;29;20241;-81
2024/01/26 07:55:26;;;;;;;2.67;2.53;;;4.10;1.00;;;4.44;100.00;101535.31;4877803;29;20568;-80
2024/01/26 07:57:55;;;;;;;5.60;2.55;;;4.30;1.00;;;4.62;100.00;101537.06;4869897;29;20224;-82
2024/01/26 08:00:25;;;;;;;8.82;2.65;;;4.50;1.00;;;4.49;100.00;101514.28;4867748;29;20796;-82
2024/01/26 08:02:54;;;;;;;8.20;4.15;;;4.50;99.90;;;4.73;100.00;101525.31;4869780;29;20207;-82
2024/01/26 08:05:23;;;;;;;3.50;2.17;;;4.60;99.90;;;4.80;100.00;101521.03;4868698;29;20203;-82
2024/01/26 08:07:54;;;;;;;5.18;2.90;;;4.60;99.90;;;4.86;100.00;101503.50;4870120;29;20227;-82
2024/01/26 08:10:23;;;;;;;3.45;2.03;;;4.70;99.90;;;5.04;100.00;101499.00;4887658;29;20204;-81
2024/01/26 08:12:56;;;;;;;2.42;1.85;;;4.90;5.30;;;5.08;100.00;101500.41;4879638;29;20214;-83
2024/01/26 08:15:29;;;;;;;2.42;1.92;;;4.90;82.90;;;5.21;100.00;101492.81;4870306;29;20207;-82
2024/01/26 08:18:01;;;;;;;3.03;2.17;;;5.00;99.90;;;5.11;100.00;101489.34;4872048;29;20245;-83
2024/01/26 08:20:30;;;;;;;1.95;1.77;;;5.00;1.00;;;5.21;100.00;101471.34;4887001;29;20211;-81
2024/01/26 08:23:01;;;;;;;6.68;2.22;;;5.00;1.00;;;5.25;100.00;101475.41;4881033;29;20211;-82
2024/01/26 08:25:30;;;;;;;12.02;4.88;;;5.10;1.00;;;5.18;100.00;101464.44;4884905;29;20212;-82
2024/01/26 08:27:59;;;;;;;4.95;2.42;;;5.10;1.00;;;5.28;100.00;101469.72;4882755;29;20215;-83
2024/01/26 08:30:32;;;;;;;5.40;3.08;;;5.20;1.00;;;5.30;100.00;101467.72;4878535;29;20197;-82
2024/01/26 08:33:02;;;;;;;3.35;1.58;;;5.20;1.00;;;5.20;100.00;101456.25;4869366;29;20243;-83
2024/01/26 08:35:31;;;;;;;4.82;4.03;;;5.20;1.00;;;5.24;100.00;101452.25;4883145;29;20440;-82
2024/01/26 08:38:02;;;;;;;3.45;2.33;;;5.10;99.90;;;5.31;100.00;101436.38;4866520;29;20226;-81
2024/01/26 08:40:31;;;;;;;5.68;3.33;;;5.20;34.20;;;5.29;100.00;101449.94;4875876;29;20188;-81
2024/01/26 08:42:59;;;;;;;3.47;2.63;;;5.20;1.00;;;5.47;100.00;101447.25;4883827;29;20179;-81
2024/01/26 08:45:28;;;;;;;3.13;2.33;;;5.30;99.90;;;5.46;100.00;101443.72;4882914;29;20191;-81
2024/01/26 08:47:57;;;;;;;4.53;1.70;;;5.30;1.00;;;5.73;100.00;101439.19;4885318;29;20288;-81
2024/01/26 08:50:26;;;;;;;7.63;2.45;;;5.50;2.00;;;5.94;99.02;101448.63;4889269;29;20217;-81
2024/01/26 08:52:55;;;;;;;1.80;1.70;;;5.70;99.90;;;5.89;99.13;101442.88;4885392;29;20215;-81
2024/01/26 08:55:28;;;;;;;8.35;4.10;;;5.70;99.90;;;5.80;99.59;101442.97;4884427;29;20184;-81
2024/01/26 08:57:57;;;;;;;1.65;1.02;;;5.70;99.90;;;5.67;100.00;101433.47;4883857;29;20209;-82
2024/01/26 09:00:29;;;;;;;3.60;3.30;;;5.60;1.00;;;5.76;100.00;101430.84;4880860;29;20282;-81
2024/01/26 09:02:58;;;;;;;14.32;2.97;;;5.70;99.90;;;5.60;100.00;101436.94;4873066;29;20197;-81
2024/01/26 09:05:27;;;;;;;3.05;1.65;;;5.60;99.90;;;5.72;100.00;101422.25;4875418;29;20205;-82
2024/01/26 09:07:59;;;;;;;2.92;2.67;;;5.60;1.00;;;5.76;100.00;101415.56;4875846;29;20224;-81
2024/01/26 09:10:29;;;;;;;1.60;1.40;;;5.60;1.00;;;5.78;100.00;101404.66;4880328;29;20214;-82
2024/01/26 09:12:58;;;;;;;2.63;2.00;;;5.60;1.00;;;5.86;100.00;101385.91;4877080;29;20579;-81
2024/01/26 09:15:28;;;;;;;28.58;3.03;;;5.70;1.00;;;6.07;100.00;101381.84;4881999;29;20222;-83
2024/01/26 09:17:57;;;;;;;3.55;1.92;;;5.80;53.90;;;6.23;100.00;101375.72;4873560;29;20238;-82
2024/01/26 09:20:26;;;;;;;7.07;3.22;;;5.90;34.80;;;6.19;100.00;101369.00;4875603;29;20293;-81
2024/01/26 09:22:58;;;;;;;8.65;3.90;;;6.00;99.90;;;6.12;100.00;101359.88;4885467;29;20214;-84
2024/01/26 09:25:27;;;;;;;2.92;2.72;;;6.00;99.90;;;6.28;100.00;101345.66;4896246;29;20277;-83
2024/01/26 09:27:57;;;;;;;5.72;2.22;;;6.10;1.00;;;6.43;100.00;101346.72;4876075;29;20202;-81
2024/01/26 09:30:28;;;;;;;3.35;3.05;;;6.20;1.00;;;6.48;100.00;101342.53;4884424;29;20188;-81
2024/01/26 09:32:57;;;;;;;3.25;2.38;;;6.30;1.00;;;6.67;100.00;101336.00;4881231;29;20583;-84
2024/01/26 09:35:26;;;;;;;2.88;2.67;;;6.40;1.00;;;6.93;99.25;101341.22;4880584;29;20575;-83
2024/01/26 09:37:55;;;;;;;21.42;3.50;;;6.60;99.90;;;7.04;98.52;101313.97;4877014;29;20581;-83
2024/01/26 09:40:25;;;;;;;2.25;1.67;;;6.80;1.00;;;7.15;98.14;101318.19;4878436;29;20231;-83
2024/01/26 09:42:55;;;;;;;5.25;1.90;;;6.90;1.00;;;7.08;98.39;101312.63;4865564;29;20214;-84
2024/01/26 09:45:25;;;;;;;6.78;2.90;;;7.00;99.90;;;7.07;99.37;101315.50;4884125;29;20241;-83
2024/01/26 09:47:54;;;;;;;3.75;1.55;;;6.90;99.90;;;7.32;99.35;101309.91;4888688;29;20230;-83
2024/01/26 09:50:23;;;;;;;3.28;2.85;;;7.10;1.00;;;7.12;99.49;101316.66;4871390;29;20228;-83
2024/01/26 09:52:52;;;;;;;4.15;3.42;;;7.00;1.00;;;7.25;99.51;101300.84;4883978;29;20264;-83
2024/01/26 09:55:22;;;;;;;2.65;2.00;;;7.00;1.00;;;7.15;100.00;101292.13;4888728;29;20213;-83
2024/01/26 09:57:53;;;;;;;4.20;2.63;;;6.90;1.00;;;7.33;100.00;101300.84;4871047;29;20206;-82
2024/01/26 10:00:23;;;;;;;12.95;2.35;;;7.10;99.90;;;7.30;100.00;101294.97;4864552;29;20198;-84
2024/01/26 10:02:53;;;;;;;6.38;3.28;;;7.10;1.00;;;7.24;100.00;101290.25;4882635;29;20206;-81
2024/01/26 10:05:23;;;;;;;4.30;2.55;;;7.10;50.60;;;6.97;100.00;101283.41;4865923;29;20195;-80
2024/01/26 10:07:51;;;;;;;13.98;3.75;;;6.90;99.90;;;7.18;100.00;101275.63;4871588;29;20757;-80
2024/01/26 10:10:21;;;;;;;2.67;1.48;;;7.00;1.00;;;7.14;100.00;101266.22;4866319;29;20196;-81
2024/01/26 10:12:51;;;;;;;2.30;1.70;;;7.10;1.00;;;7.15;100.00;101265.22;4874846;29;20620;-80
2024/01/26 10:15:20;;;;;;;2.95;2.75;;;7.00;1.00;;;7.23;100.00;101246.34;4863691;29;20195;-82
2024/01/26 10:17:55;;;;;;;1.73;1.33;;;7.10;99.90;;;7.15;100.00;101230.22;4871171;29;20238;-81
2024/01/26 10:20:27;;;;;;;4.35;2.00;;;7.00;99.90;;;7.50;100.00;101230.78;4862410;29;20215;-82
2024/01/26 10:22:57;;;;;;;4.82;1.13;;;7.20;1.00;;;7.28;100.00;101200.06;4867039;29;20214;-80
2024/01/26 10:25:26;;;;;;;2.97;2.63;;;7.20;99.90;;;7.51;100.00;101217.13;4865609;29;20213;-80
2024/01/26 10:27:55;;;;;;;1.88;1.73;;;7.30;1.00;;;7.76;100.00;101216.00;4866962;29;20234;-81
2024/01/26 10:30:24;;;;;;;5.20;1.98;;;7.40;99.90;;;7.91;100.00;101213.41;4878678;29;20201;-81
2024/01/26 10:32:58;;;;;;;3.28;2.60;;;7.60;25.60;;;8.04;100.00;101218.19;4868840;29;20206;-81
2024/01/26 10:35:31;;;;;;;7.47;3.72;;;7.80;1.00;;;8.09;100.00;101222.06;4869165;29;20737;-80
2024/01/26 10:38:09;;;;;;;4.47;2.15;;;7.90;1.00;;;7.89;100.00;101214.63;4867748;29;20221;-79
2024/01/26 10:40:45;;;;;;;23.35;4.15;;;7.80;1.00;;;7.74;100.00;101215.38;4875575;29;20225;-81
2024/01/26 10:43:19;;;;;;;4.47;2.90;;;7.70;99.90;;;8.09;100.00;101200.47;4880554;29;20183;-80
2024/01/26 10:45:49;;;;;;;8.18;3.85;;;7.80;99.90;;;8.21;100.00;101201.75;4883707;29;20192;-80
2024/01/26 10:48:23;;;;;;;3.70;1.63;;;8.00;1.00;;;8.42;100.00;101184.13;4880110;29;20227;-80
2024/01/26 10:50:53;;;;;;;4.57;1.95;;;8.10;1.00;;;8.61;100.00;101178.22;4879383;29;20222;-81